Terminal Aerodrome Forecast
Issued by NWS

Home | Current Version | Previous Version | Text Only | Print | Product List | Glossary On
Versions: 1 2 3 4 5 6 7 8 9 10 11 12 13 14 15 16 17 18 19 20 21 22 23 24 25 26 27
000
FTUS46 KPDT 210100 AAA
TAFALW
TAF AMD
KALW 210129Z 2101/2124 17015KT 6SM -RA BR OVC040
     FM210900 21020G35KT P6SM VCSH OVC025
     FM211500 21018G28KT P6SM VCSH OVC030
     FM212100 24015G25KT P6SM VCSH SCT040 BKN100=

USA.gov is the U.S. government's official web portal to all federal, state and local government web resources and services.